createdAt,value
2022-12-11T00:00:55.180Z,90.70
2022-12-11T00:03:22.646Z,90.50
2022-12-11T00:05:50.330Z,90.50
2022-12-11T00:08:17.889Z,90.40
2022-12-11T00:10:50.202Z,90.60
2022-12-11T00:13:17.747Z,90.50
2022-12-11T00:15:45.374Z,90.30
2022-12-11T00:18:14.555Z,90.40
2022-12-11T00:20:42.897Z,90.70
2022-12-11T00:23:11.189Z,90.50
2022-12-11T00:25:44.506Z,90.60
2022-12-11T00:28:19.988Z,90.40
2022-12-11T00:30:48.167Z,90.30
2022-12-11T00:33:16.259Z,90.50
2022-12-11T00:35:47.494Z,90.30
2022-12-11T00:38:17.498Z,90.40
2022-12-11T00:40:45.515Z,90.40
2022-12-11T00:43:13.902Z,90.60
2022-12-11T00:45:43.805Z,90.80
2022-12-11T00:48:12.552Z,90.60
2022-12-11T00:50:41.011Z,90.70
2022-12-11T00:53:08.539Z,90.50
2022-12-11T00:55:40.616Z,90.40
2022-12-11T00:58:08.110Z,90.70
2022-12-11T01:00:36.059Z,90.60
2022-12-11T01:03:03.960Z,90.90
2022-12-11T01:05:31.555Z,90.70
2022-12-11T01:07:59.431Z,90.60
2022-12-11T01:10:27.746Z,90.80
2022-12-11T01:12:58.343Z,90.70
2022-12-11T01:15:28.779Z,90.60
2022-12-11T01:17:57.062Z,90.80
2022-12-11T01:20:26.593Z,90.80
2022-12-11T01:22:59.500Z,91.00
2022-12-11T01:25:28.452Z,90.90
2022-12-11T01:27:56.810Z,91.00
2022-12-11T01:30:26.263Z,91.20
2022-12-11T01:32:53.987Z,91.10
2022-12-11T01:35:21.746Z,91.10
2022-12-11T01:37:49.421Z,91.10
2022-12-11T01:40:19.505Z,90.80
2022-12-11T01:42:47.196Z,91.10
2022-12-11T01:45:35.067Z,91.10
2022-12-11T01:48:27.885Z,91.30
2022-12-11T01:50:58.575Z,91.10
2022-12-11T01:53:50.837Z,91.30
2022-12-11T01:56:18.948Z,91.40
2022-12-11T01:58:56.850Z,91.50
2022-12-11T02:02:01.614Z,91.40
2022-12-11T02:04:30.284Z,91.50
2022-12-11T02:06:57.753Z,91.20
2022-12-11T02:09:29.309Z,90.90
2022-12-11T02:12:16.348Z,90.90
2022-12-11T02:14:49.251Z,90.90
2022-12-11T02:17:26.659Z,91.10
2022-12-11T02:20:13.209Z,91.20
2022-12-11T02:22:59.258Z,91.10
2022-12-11T02:25:36.690Z,90.70
2022-12-11T02:28:06.968Z,90.80
2022-12-11T02:30:37.786Z,90.70
2022-12-11T02:33:07.712Z,90.70
2022-12-11T02:35:42.936Z,90.30
2022-12-11T02:38:20.143Z,90.20
2022-12-11T02:40:51.179Z,90.30
2022-12-11T02:43:20.554Z,90.40
2022-12-11T02:45:50.285Z,90.30
2022-12-11T02:48:19.571Z,90.50
2022-12-11T02:50:50.126Z,89.80
2022-12-11T02:53:22.134Z,89.40
2022-12-11T02:55:54.743Z,89.20
2022-12-11T02:58:30.024Z,89.60
2022-12-11T03:00:57.624Z,89.50
2022-12-11T03:03:25.519Z,89.50
2022-12-11T03:05:53.751Z,89.60
2022-12-11T03:08:21.168Z,89.70
2022-12-11T03:10:48.711Z,89.80
2022-12-11T03:13:20.648Z,90.20
2022-12-11T03:15:56.658Z,90.00
2022-12-11T03:18:32.480Z,90.10
2022-12-11T03:21:22.674Z,90.20
2022-12-11T03:24:02.822Z,90.40
2022-12-11T03:26:33.367Z,90.50
2022-12-11T03:29:04.487Z,90.40
2022-12-11T03:31:41.151Z,90.60
2022-12-11T03:34:19.502Z,90.60
2022-12-11T03:36:48.081Z,90.90
2022-12-11T03:39:24.188Z,91.00
2022-12-11T03:41:53.315Z,91.00
2022-12-11T03:44:22.174Z,91.00
2022-12-11T03:46:52.901Z,91.10
2022-12-11T03:49:28.500Z,91.20
2022-12-11T03:52:00.130Z,91.20
2022-12-11T03:54:28.114Z,91.20
2022-12-11T03:56:59.611Z,91.40
2022-12-11T03:59:27.112Z,91.60
2022-12-11T04:01:54.680Z,91.60
2022-12-11T04:04:22.326Z,91.60
2022-12-11T04:06:49.763Z,91.70
2022-12-11T04:09:17.468Z,91.50
2022-12-11T04:11:44.900Z,91.40
2022-12-11T04:14:33.496Z,91.40
2022-12-11T04:17:01.437Z,90.90
2022-12-11T04:19:47.191Z,91.00
2022-12-11T04:22:34.540Z,91.00
2022-12-11T04:25:03.502Z,91.30
2022-12-11T04:27:49.196Z,91.50
2022-12-11T04:30:22.291Z,91.10
2022-12-11T04:32:50.123Z,91.90
2022-12-11T04:35:17.807Z,91.50
2022-12-11T04:37:45.285Z,91.30
2022-12-11T04:40:15.244Z,91.10
2022-12-11T04:42:42.996Z,91.20
2022-12-11T04:45:11.539Z,91.10
2022-12-11T04:47:40.407Z,91.10
2022-12-11T04:50:10.006Z,91.30
2022-12-11T04:52:37.373Z,91.20
2022-12-11T04:55:07.018Z,91.30
2022-12-11T04:57:34.958Z,91.20
2022-12-11T05:00:05.088Z,91.10
2022-12-11T05:02:39.610Z,91.10
2022-12-11T05:05:10.382Z,91.00
2022-12-11T05:07:38.559Z,91.10
2022-12-11T05:10:06.568Z,91.20
2022-12-11T05:12:34.299Z,91.50
2022-12-11T05:15:01.878Z,91.40
2022-12-11T05:17:29.546Z,91.30
2022-12-11T05:19:57.111Z,91.00
2022-12-11T05:22:24.879Z,90.90
2022-12-11T05:24:52.510Z,90.90
2022-12-11T05:27:19.985Z,91.00
2022-12-11T05:29:47.827Z,91.20
2022-12-11T05:32:15.202Z,91.10
2022-12-11T05:34:42.808Z,91.20
2022-12-11T05:37:10.653Z,91.20
2022-12-11T05:39:39.091Z,90.80
2022-12-11T05:42:06.362Z,91.20
2022-12-11T05:44:34.219Z,91.20
2022-12-11T05:47:01.679Z,91.40
2022-12-11T05:49:30.965Z,91.30
2022-12-11T05:51:58.657Z,91.40
2022-12-11T05:54:26.180Z,91.10
2022-12-11T05:56:53.655Z,91.00
2022-12-11T05:59:21.082Z,91.20
2022-12-11T06:01:48.475Z,91.00
2022-12-11T06:04:15.820Z,91.10
2022-12-11T06:06:44.167Z,91.30
2022-12-11T06:09:16.648Z,91.10
2022-12-11T06:11:43.928Z,91.10
2022-12-11T06:14:12.163Z,91.10
2022-12-11T06:16:39.770Z,91.30
2022-12-11T06:19:07.247Z,91.30
2022-12-11T06:21:34.685Z,91.30
2022-12-11T06:24:04.343Z,91.50
2022-12-11T06:26:32.363Z,91.40
2022-12-11T06:28:59.939Z,91.30
2022-12-11T06:31:27.548Z,91.50
2022-12-11T06:33:55.127Z,91.40
2022-12-11T06:36:24.724Z,91.20
2022-12-11T06:38:52.884Z,91.10
2022-12-11T06:41:20.529Z,90.80
2022-12-11T06:43:48.207Z,90.90
2022-12-11T06:46:18.815Z,91.10
2022-12-11T06:48:46.877Z,91.10
2022-12-11T06:51:17.523Z,91.10
2022-12-11T06:53:45.523Z,91.00
2022-12-11T06:56:15.427Z,90.80
2022-12-11T06:58:44.327Z,91.10
2022-12-11T07:01:24.065Z,90.90
2022-12-11T07:03:57.765Z,90.50
2022-12-11T07:06:26.652Z,90.80
2022-12-11T07:08:54.765Z,91.10
2022-12-11T07:11:22.883Z,90.80
2022-12-11T07:13:51.573Z,91.20
2022-12-11T07:16:20.823Z,91.00
2022-12-11T07:18:50.841Z,91.00
2022-12-11T07:21:20.682Z,91.30
2022-12-11T07:23:49.135Z,91.20
2022-12-11T07:26:19.213Z,91.40
2022-12-11T07:28:47.057Z,90.90
2022-12-11T07:31:17.718Z,91.00
2022-12-11T07:33:46.113Z,90.90
2022-12-11T07:36:16.568Z,90.90
2022-12-11T07:38:44.208Z,90.80
2022-12-11T07:41:14.131Z,90.70
2022-12-11T07:43:42.682Z,90.50
2022-12-11T07:46:16.691Z,90.30
2022-12-11T07:48:46.466Z,90.10
2022-12-11T07:51:28.328Z,90.30
2022-12-11T07:53:59.398Z,90.30
2022-12-11T07:56:28.926Z,90.60
2022-12-11T07:58:59.513Z,90.80
2022-12-11T08:01:29.544Z,91.00
2022-12-11T08:03:57.821Z,90.60
2022-12-11T08:06:31.660Z,90.90
2022-12-11T08:09:00.846Z,90.90
2022-12-11T08:11:29.603Z,91.10
2022-12-11T08:13:59.772Z,91.00
2022-12-11T08:16:27.783Z,90.80
2022-12-11T08:18:55.647Z,90.60
2022-12-11T08:21:25.349Z,90.50
2022-12-11T08:23:53.957Z,90.30
2022-12-11T08:26:24.647Z,90.40
2022-12-11T08:28:52.286Z,90.40
2022-12-11T08:31:20.170Z,90.30
2022-12-11T08:33:48.424Z,90.20
2022-12-11T08:36:18.287Z,90.30
2022-12-11T08:38:46.967Z,90.10
2022-12-11T08:41:26.649Z,90.60
2022-12-11T08:43:55.522Z,90.20
2022-12-11T08:46:28.438Z,89.70
2022-12-11T08:48:58.165Z,97.50
2022-12-11T08:51:28.108Z,99.60
2022-12-11T08:53:57.642Z,96.50
2022-12-11T08:56:26.182Z,91.00
2022-12-11T08:58:53.833Z,88.40
2022-12-11T09:01:24.801Z,87.20
2022-12-11T09:03:54.323Z,87.70
2022-12-11T09:06:24.198Z,88.30
2022-12-11T09:08:53.440Z,88.50
2022-12-11T09:11:26.765Z,88.80
2022-12-11T09:13:55.490Z,88.60
2022-12-11T09:16:25.150Z,88.60
2022-12-11T09:18:54.103Z,89.00
2022-12-11T09:21:23.725Z,89.20
2022-12-11T09:23:54.935Z,89.00
2022-12-11T09:26:23.293Z,89.00
